Weather at Welland (County General Hospital) Heliport

Public forecast

Using degrees Celsius for public forecast. Weather courtesy of forecast.io.

Closest aviation weather report (METAR) to Welland (County General Hospital) Heliport

Closest report is Niagara District Airport, 13.3 nm (24.6 km) NNE.

2024/05/27 22:00 (retrieved 33 minutes ago)

CYSN 272200Z 24024G37KT 15SM SCT036 BKN250 24/15 A2950 RMK SC3CI3 SLP989 DENSITY ALT 1900FT

Closest aviation forecast (TAF) to Welland (County General Hospital) Heliport

Closest forecast is Niagara District Airport, 13.3 nm (24.6 km) NNE.

2024/05/27 20:00 (retrieved 3 hours ago)

TAF CYSN 271940Z 2720/2801 23020G30KT P6SM BKN030 OVC120 TEMPO 2720/2801 BKN020 OVC120 BECMG 2722/2724 23015KT RMK NXT FCST BY 281300Z